KSUS/SUS METAR and TAF weather

Enter ICAO airport designator
Station Type Date Time Source
KSUS METAR 2019/08/25 01:54 UTC NOAA

KSUS 250154Z 09005KT 10SM CLR 22/14 A3009 RMK AO2 SLP183 T02170144


Station Type Date Time Source
KSUS Decoded METAR 2019/08/25 01:54 UTC NOAA

Station name not available
Aug 24, 2019 - 09:54 PM EDT / 2019.08.25 0154 UTC
Wind: from the E (090 degrees) at 6 MPH (5 KT):0
Visibility: 10 mile(s):0
Sky conditions: clear
Temperature: 71.1 F (21.7 C)
Dew Point: 57.9 F (14.4 C)
Relative Humidity: 63%
Pressure (altimeter): 30.09 in. Hg (1018 hPa)
ob: KSUS 250154Z 09005KT 10SM CLR 22/14 A3009 RMK AO2 SLP183 T02170144
cycle: 2

Station Type Date Time Source
KSUS TAF 2019/08/24 18:39 UTC NOAA

TAF KSUS 241735Z 2418/2518 09011G16KT P6SM SCT045 BKN250
FM250000 08008KT P6SM BKN250
FM250900 08004KT P6SM BKN080
FM251600 11006KT P6SM BKN050

Example: see airport list